createdAt,value
2019-04-21T00:01:16.499Z,7.90
2019-04-21T00:03:51.495Z,9.13
2019-04-21T00:06:30.193Z,8.43
2019-04-21T00:09:02.712Z,8.90
2019-04-21T00:11:49.726Z,7.53
2019-04-21T00:14:22.687Z,7.60
2019-04-21T00:17:07.892Z,9.87
2019-04-21T00:22:33.156Z,10.13
2019-04-21T00:24:59.763Z,16.77
2019-04-21T00:27:28.329Z,8.07
2019-04-21T00:29:59.098Z,12.50
2019-04-21T00:32:33.515Z,10.13
2019-04-21T00:34:56.255Z,10.13
2019-04-21T00:37:57.645Z,9.97
2019-04-21T00:41:07.275Z,12.40
2019-04-21T00:43:30.722Z,8.80
2019-04-21T00:46:10.792Z,9.23
2019-04-21T00:48:47.667Z,11.10
2019-04-21T00:52:15.876Z,11.40
2019-04-21T00:55:14.013Z,10.20
2019-04-21T00:57:57.476Z,11.03
2019-04-21T01:00:44.514Z,9.10
2019-04-21T01:03:12.873Z,11.47
2019-04-21T01:05:57.642Z,10.60
2019-04-21T01:08:41.032Z,13.10
2019-04-21T01:11:31.816Z,22.50
2019-04-21T01:14:05.138Z,20.67
2019-04-21T01:16:33.153Z,16.20
2019-04-21T01:18:56.559Z,12.97
2019-04-21T01:21:13.600Z,14.57
2019-04-21T01:23:31.738Z,8.70
2019-04-21T01:26:13.738Z,12.63
2019-04-21T01:28:40.067Z,9.63
2019-04-21T01:31:15.375Z,8.97
2019-04-21T01:33:44.937Z,10.90
2019-04-21T01:36:08.247Z,11.27
2019-04-21T01:39:03.397Z,9.70
2019-04-21T01:41:28.104Z,9.97
2019-04-21T01:43:49.070Z,8.63
2019-04-21T01:46:15.410Z,9.53
2019-04-21T01:48:45.646Z,9.43
2019-04-21T01:54:26.843Z,10.27
2019-04-21T01:59:47.324Z,13.40
2019-04-21T02:02:43.716Z,11.90
2019-04-21T02:05:39.334Z,10.70
2019-04-21T02:08:01.955Z,12.93
2019-04-21T02:10:34.947Z,10.03
2019-04-21T02:12:58.285Z,10.60
2019-04-21T02:16:06.844Z,11.43
2019-04-21T02:18:34.026Z,15.30
2019-04-21T02:20:55.328Z,12.03
2019-04-21T02:25:58.764Z,9.73
2019-04-21T02:28:50.216Z,9.90
2019-04-21T02:33:55.916Z,9.13
2019-04-21T02:39:23.194Z,10.43
2019-04-21T02:46:46.304Z,9.37
2019-04-21T02:49:22.082Z,10.87
2019-04-21T02:51:58.721Z,10.27
2019-04-21T02:56:48.789Z,10.47
2019-04-21T03:07:42.777Z,11.97
2019-04-21T03:10:10.724Z,10.17
2019-04-21T03:12:38.082Z,10.87
2019-04-21T03:20:02.900Z,10.80
2019-04-21T03:22:42.376Z,9.40
2019-04-21T03:25:21.377Z,10.30
2019-04-21T03:27:57.325Z,12.13
2019-04-21T03:34:02.696Z,9.90
2019-04-21T03:36:13.292Z,13.53
2019-04-21T03:38:18.928Z,14.17
2019-04-21T03:40:41.218Z,10.67
2019-04-21T03:43:12.209Z,11.13
2019-04-21T03:51:23.504Z,11.77
2019-04-21T03:56:14.834Z,11.53
2019-04-21T03:58:55.867Z,11.07
2019-04-21T04:01:37.092Z,12.60
2019-04-21T04:12:26.399Z,13.07
2019-04-21T04:17:25.682Z,11.87
2019-04-21T04:19:45.014Z,11.63
2019-04-21T04:22:04.295Z,11.07
2019-04-21T04:24:39.581Z,14.53
2019-04-21T04:29:59.426Z,11.20
2019-04-21T04:32:23.207Z,10.63
2019-04-21T04:40:21.521Z,10.70
2019-04-21T04:45:53.636Z,11.30
2019-04-21T04:48:19.711Z,11.73
2019-04-21T04:53:20.337Z,11.20
2019-04-21T04:58:18.239Z,11.03
2019-04-21T05:01:32.780Z,11.23
2019-04-21T05:04:20.325Z,11.17
2019-04-21T05:09:07.747Z,14.83
2019-04-21T05:12:11.284Z,12.50
2019-04-21T05:15:04.491Z,12.43
2019-04-21T05:20:10.411Z,10.30
2019-04-21T05:22:22.305Z,12.10
2019-04-21T05:25:00.982Z,13.90
2019-04-21T05:27:50.009Z,12.27
2019-04-21T05:35:51.399Z,11.07
2019-04-21T05:38:31.542Z,10.63
2019-04-21T05:41:17.583Z,11.27
2019-04-21T05:43:54.121Z,11.03
2019-04-21T05:46:18.452Z,13.87
2019-04-21T05:49:12.710Z,11.13
2019-04-21T05:51:33.191Z,11.57
2019-04-21T05:54:17.771Z,11.90
2019-04-21T05:56:36.464Z,13.77
2019-04-21T05:58:55.437Z,12.50
2019-04-21T06:04:07.247Z,12.17
2019-04-21T06:06:56.738Z,12.67
2019-04-21T06:10:00.001Z,12.73
2019-04-21T06:12:29.720Z,15.23
2019-04-21T06:14:55.952Z,13.87
2019-04-21T06:17:30.466Z,15.30
2019-04-21T06:20:16.505Z,13.50
2019-04-21T06:22:36.012Z,11.67
2019-04-21T06:28:01.816Z,11.60
2019-04-21T06:30:53.339Z,11.33
2019-04-21T06:33:10.381Z,11.93
2019-04-21T06:41:22.799Z,11.47
2019-04-21T06:46:34.883Z,12.60
2019-04-21T06:49:02.676Z,12.40
2019-04-21T06:51:48.410Z,10.90
2019-04-21T06:54:14.725Z,11.90
2019-04-21T06:56:58.653Z,11.40
2019-04-21T06:59:12.077Z,15.77
2019-04-21T07:01:43.905Z,11.07
2019-04-21T07:06:43.611Z,10.73
2019-04-21T07:11:25.565Z,10.50
2019-04-21T07:14:13.279Z,11.50
2019-04-21T07:16:32.002Z,10.33
2019-04-21T07:19:04.407Z,11.33
2019-04-21T07:21:25.526Z,9.43
2019-04-21T07:23:54.279Z,15.90
2019-04-21T07:26:19.684Z,10.97
2019-04-21T07:31:59.178Z,11.03
2019-04-21T07:34:28.845Z,10.70
2019-04-21T07:39:17.998Z,10.80
2019-04-21T07:41:43.843Z,11.33
2019-04-21T07:44:04.614Z,11.30
2019-04-21T07:46:36.369Z,8.53
2019-04-21T07:49:32.888Z,9.70
2019-04-21T07:54:41.465Z,11.83
2019-04-21T07:56:52.416Z,9.30
2019-04-21T07:59:37.134Z,10.57
2019-04-21T08:02:02.519Z,14.13
2019-04-21T08:04:43.551Z,10.53
2019-04-21T08:06:52.085Z,9.20
2019-04-21T08:09:22.956Z,10.00
2019-04-21T08:11:44.257Z,9.90
2019-04-21T08:14:19.507Z,9.93
2019-04-21T08:16:49.883Z,15.23
2019-04-21T08:19:13.054Z,8.73
2019-04-21T08:21:42.603Z,12.80
2019-04-21T08:24:13.158Z,9.63
2019-04-21T08:26:35.972Z,10.70
2019-04-21T08:29:12.602Z,9.03
2019-04-21T08:31:45.588Z,8.83
2019-04-21T08:34:03.307Z,10.40
2019-04-21T08:38:54.514Z,8.30
2019-04-21T08:41:18.868Z,9.70
2019-04-21T08:44:01.691Z,8.23
2019-04-21T08:46:20.268Z,10.27
2019-04-21T08:48:43.876Z,9.00
2019-04-21T08:53:42.842Z,8.27
2019-04-21T08:56:31.915Z,8.43
2019-04-21T08:59:19.300Z,7.30
2019-04-21T09:02:02.903Z,8.67
2019-04-21T09:07:20.065Z,7.77
2019-04-21T09:09:47.481Z,7.50
2019-04-21T09:12:10.991Z,10.30
2019-04-21T09:14:41.592Z,9.13
2019-04-21T09:17:20.626Z,10.90
2019-04-21T09:20:05.733Z,7.90
2019-04-21T09:22:28.683Z,8.30
2019-04-21T09:24:52.630Z,14.40
2019-04-21T09:27:17.903Z,8.10
2019-04-21T09:29:36.739Z,10.00
2019-04-21T09:31:59.171Z,8.50
2019-04-21T09:34:30.585Z,8.83
2019-04-21T09:37:02.937Z,7.93
2019-04-21T09:39:22.655Z,9.23
2019-04-21T09:41:51.194Z,9.40
2019-04-21T09:44:22.060Z,11.10
2019-04-21T09:46:49.778Z,8.53
2019-04-21T09:49:13.903Z,8.97
2019-04-21T09:51:39.332Z,9.50
2019-04-21T09:54:12.063Z,8.60
2019-04-21T09:56:41.500Z,8.50
2019-04-21T09:59:11.437Z,10.03
2019-04-21T10:01:47.501Z,10.70
2019-04-21T10:04:00.280Z,9.90
2019-04-21T10:06:25.968Z,10.53
2019-04-21T10:08:58.531Z,10.77
2019-04-21T10:11:20.997Z,13.53
2019-04-21T10:13:48.791Z,10.00
2019-04-21T10:16:36.379Z,8.80
2019-04-21T10:19:02.623Z,8.70
2019-04-21T10:21:29.397Z,9.03
2019-04-21T10:23:56.210Z,10.03
2019-04-21T10:26:22.256Z,11.27
2019-04-21T10:28:49.020Z,8.87
2019-04-21T10:31:16.728Z,8.90
2019-04-21T10:33:44.252Z,9.83
2019-04-21T10:36:11.358Z,8.67
2019-04-21T10:38:43.194Z,8.67
2019-04-21T10:41:05.505Z,10.20
2019-04-21T10:43:33.481Z,9.40
2019-04-21T10:46:01.238Z,8.50
2019-04-21T10:48:29.313Z,10.60
2019-04-21T10:50:57.012Z,9.23
2019-04-21T10:56:20.172Z,13.97
2019-04-21T11:06:34.736Z,9.03
2019-04-21T11:09:03.687Z,7.33
2019-04-21T11:11:30.193Z,9.03
2019-04-21T11:13:58.752Z,9.00
2019-04-21T11:16:25.161Z,10.20
2019-04-21T11:18:51.624Z,7.90
2019-04-21T11:21:18.877Z,8.07
2019-04-21T11:23:45.810Z,11.23
2019-04-21T11:26:13.630Z,8.90
2019-04-21T11:28:40.832Z,8.23
2019-04-21T11:31:09.009Z,9.23
2019-04-21T11:33:37.477Z,8.97
2019-04-21T11:36:03.811Z,9.67
2019-04-21T11:39:03.306Z,8.70
2019-04-21T11:43:51.163Z,9.60
2019-04-21T11:46:18.228Z,12.70
2019-04-21T11:48:46.087Z,7.93
2019-04-21T11:51:13.125Z,8.83
2019-04-21T11:53:41.092Z,9.60
2019-04-21T11:56:09.052Z,8.00
2019-04-21T11:58:36.243Z,9.13
2019-04-21T12:03:49.679Z,8.37
2019-04-21T12:06:17.485Z,9.60
2019-04-21T12:08:49.421Z,9.37
2019-04-21T12:11:13.715Z,8.60
2019-04-21T12:13:42.292Z,7.57
2019-04-21T12:18:56.946Z,8.70
2019-04-21T12:21:23.361Z,10.60
2019-04-21T12:23:50.649Z,7.87
2019-04-21T12:26:17.931Z,8.43
2019-04-21T12:28:44.263Z,8.37
2019-04-21T12:36:35.814Z,8.17
2019-04-21T12:42:04.729Z,8.93
2019-04-21T12:44:31.682Z,8.43
2019-04-21T12:46:59.180Z,8.33
2019-04-21T12:49:45.582Z,11.13
2019-04-21T12:52:11.550Z,8.80
2019-04-21T12:54:37.720Z,10.47
2019-04-21T12:57:05.417Z,13.50
2019-04-21T12:59:34.170Z,10.40
2019-04-21T13:02:43.465Z,16.83
2019-04-21T13:05:11.574Z,8.03
2019-04-21T13:07:37.894Z,8.83
2019-04-21T13:10:46.413Z,11.67
2019-04-21T13:13:12.430Z,9.43
2019-04-21T13:15:39.674Z,8.80
2019-04-21T13:18:06.129Z,8.57
2019-04-21T13:20:31.945Z,8.77
2019-04-21T13:22:57.898Z,8.17
2019-04-21T13:25:24.105Z,8.40
2019-04-21T13:27:49.965Z,8.13
2019-04-21T13:30:58.216Z,7.90
2019-04-21T13:33:25.169Z,10.67
2019-04-21T13:35:53.102Z,7.83
2019-04-21T13:38:29.362Z,7.93
2019-04-21T13:41:23.092Z,7.47
2019-04-21T13:46:12.213Z,8.90
2019-04-21T13:48:38.152Z,7.60
2019-04-21T13:51:05.002Z,7.77
2019-04-21T13:53:33.102Z,7.50
2019-04-21T13:56:00.435Z,6.97
2019-04-21T13:58:28.564Z,7.13
2019-04-21T14:00:56.060Z,6.80
2019-04-21T14:03:24.716Z,8.23
2019-04-21T14:05:50.715Z,6.73
2019-04-21T14:08:16.652Z,7.70
2019-04-21T14:10:43.955Z,14.63
2019-04-21T14:13:10.457Z,7.37
2019-04-21T14:15:36.373Z,7.20
2019-04-21T14:18:02.868Z,8.00
2019-04-21T14:20:31.208Z,15.40
2019-04-21T14:23:10.297Z,7.50
2019-04-21T14:25:25.956Z,7.83
2019-04-21T14:27:53.733Z,6.60
2019-04-21T14:30:20.611Z,7.83
2019-04-21T14:32:48.112Z,7.17
2019-04-21T14:35:14.772Z,7.23
2019-04-21T14:37:42.538Z,7.50
2019-04-21T14:40:14.583Z,7.57
2019-04-21T14:42:38.256Z,7.20
2019-04-21T14:45:45.793Z,7.00
2019-04-21T14:48:32.614Z,8.10
2019-04-21T14:51:19.121Z,6.83
2019-04-21T14:56:19.396Z,8.03
2019-04-21T14:58:47.052Z,7.97
2019-04-21T15:01:13.694Z,6.57
2019-04-21T15:03:41.729Z,6.70
2019-04-21T15:06:09.364Z,14.13
2019-04-21T15:08:37.371Z,6.60
2019-04-21T15:11:05.332Z,6.87
2019-04-21T15:13:32.382Z,7.23
2019-04-21T15:16:00.634Z,7.10
2019-04-21T15:18:28.573Z,7.10
2019-04-21T15:20:55.361Z,6.87
2019-04-21T15:23:24.442Z,6.37
2019-04-21T15:25:50.274Z,6.37
2019-04-21T15:28:17.822Z,6.60
2019-04-21T15:30:44.771Z,6.70
2019-04-21T15:33:10.722Z,6.50
2019-04-21T15:35:37.660Z,8.00
2019-04-21T15:38:04.206Z,7.07
2019-04-21T15:40:40.773Z,6.47
2019-04-21T15:42:57.870Z,6.50
2019-04-21T15:45:24.372Z,6.40
2019-04-21T15:47:50.310Z,6.87
2019-04-21T15:50:18.133Z,7.00
2019-04-21T15:55:39.224Z,5.70
2019-04-21T16:00:58.839Z,6.40
2019-04-21T16:03:24.899Z,5.93
2019-04-21T16:05:53.688Z,8.80
2019-04-21T16:08:20.446Z,5.73
2019-04-21T16:10:54.695Z,5.87
2019-04-21T16:13:16.118Z,6.83
2019-04-21T16:15:44.262Z,7.63
2019-04-21T16:18:12.173Z,6.83
2019-04-21T16:20:39.928Z,5.47
2019-04-21T16:23:08.485Z,6.07
2019-04-21T16:28:11.096Z,5.57
2019-04-21T16:30:38.349Z,9.00
2019-04-21T16:33:06.034Z,6.20
2019-04-21T16:35:33.829Z,5.57
2019-04-21T16:38:02.538Z,5.20
2019-04-21T16:40:41.311Z,5.67
2019-04-21T16:42:56.743Z,6.23
2019-04-21T16:46:04.682Z,5.50
2019-04-21T16:48:30.904Z,5.50
2019-04-21T16:56:20.628Z,5.30
2019-04-21T17:01:44.742Z,5.83
2019-04-21T17:04:10.822Z,7.83
2019-04-21T17:06:38.605Z,6.00
2019-04-21T17:09:46.466Z,5.40
2019-04-21T17:12:14.660Z,9.50
2019-04-21T17:14:55.577Z,6.00
2019-04-21T17:17:35.172Z,5.73
2019-04-21T17:19:41.819Z,7.43
2019-04-21T17:22:45.732Z,4.60
2019-04-21T17:25:11.809Z,5.23
2019-04-21T17:27:38.877Z,5.20
2019-04-21T17:30:48.453Z,5.23
2019-04-21T17:33:21.025Z,6.07
2019-04-21T17:35:42.848Z,5.77
2019-04-21T17:38:09.858Z,5.70
2019-04-21T17:40:37.809Z,5.17
2019-04-21T17:43:10.148Z,5.13
2019-04-21T17:45:33.016Z,6.90
2019-04-21T17:48:05.141Z,6.33
2019-04-21T17:50:49.498Z,7.10
2019-04-21T17:56:16.751Z,6.07
2019-04-21T17:58:31.043Z,5.40
2019-04-21T18:04:04.865Z,9.60
2019-04-21T18:06:57.912Z,5.83
2019-04-21T18:09:36.388Z,6.67
2019-04-21T18:12:01.928Z,5.67
2019-04-21T18:14:09.512Z,5.90
2019-04-21T18:16:41.789Z,6.63
2019-04-21T18:19:04.817Z,5.13
2019-04-21T18:21:54.810Z,5.63
2019-04-21T18:29:33.681Z,6.90
2019-04-21T18:32:01.106Z,7.00
2019-04-21T18:37:33.084Z,7.27
2019-04-21T18:40:05.797Z,7.23
2019-04-21T18:45:55.379Z,7.13
2019-04-21T18:48:26.679Z,10.70
2019-04-21T18:51:11.397Z,7.00
2019-04-21T18:56:12.933Z,9.10
2019-04-21T18:58:38.142Z,8.07
2019-04-21T19:01:11.827Z,9.43
2019-04-21T19:03:39.920Z,6.20
2019-04-21T19:06:08.815Z,10.07
2019-04-21T19:08:46.594Z,6.07
2019-04-21T19:11:14.791Z,7.73
2019-04-21T19:14:12.957Z,6.07
2019-04-21T19:16:33.229Z,7.93
2019-04-21T19:19:20.897Z,7.03
2019-04-21T19:21:23.110Z,6.40
2019-04-21T19:23:51.962Z,7.30
2019-04-21T19:27:12.061Z,7.57
2019-04-21T19:29:32.984Z,7.83
2019-04-21T19:32:13.912Z,9.87
2019-04-21T19:34:17.426Z,9.40
2019-04-21T19:36:36.982Z,8.80
2019-04-21T19:39:58.515Z,7.73
2019-04-21T19:42:22.652Z,9.33
2019-04-21T19:44:56.541Z,9.07
2019-04-21T19:47:28.202Z,11.27
2019-04-21T19:49:55.411Z,9.20
2019-04-21T19:52:11.294Z,9.97
2019-04-21T19:54:36.363Z,8.57
2019-04-21T19:57:00.753Z,11.43
2019-04-21T19:59:34.532Z,9.00
2019-04-21T20:01:56.163Z,9.40
2019-04-21T20:04:31.806Z,8.40
2019-04-21T20:07:01.036Z,7.30
2019-04-21T20:09:36.725Z,6.97
2019-04-21T20:11:58.095Z,11.37
2019-04-21T20:16:58.107Z,7.30
2019-04-21T20:19:12.586Z,6.57
2019-04-21T20:21:38.894Z,6.70
2019-04-21T20:24:28.359Z,9.87
2019-04-21T20:27:03.599Z,7.23
2019-04-21T20:29:38.902Z,6.40
2019-04-21T20:32:08.375Z,7.27
2019-04-21T20:34:34.484Z,5.57
2019-04-21T20:37:02.191Z,8.00
2019-04-21T20:39:17.185Z,8.07
2019-04-21T20:41:48.290Z,8.60
2019-04-21T20:44:23.068Z,9.50
2019-04-21T20:46:49.341Z,11.17
2019-04-21T20:49:15.716Z,10.90
2019-04-21T20:51:42.526Z,10.27
2019-04-21T20:54:16.030Z,9.07
2019-04-21T20:56:45.217Z,13.50
2019-04-21T20:59:11.954Z,11.67
2019-04-21T21:01:39.369Z,15.50
2019-04-21T21:06:32.835Z,10.40
2019-04-21T21:09:01.526Z,10.10
2019-04-21T21:11:29.358Z,8.93
2019-04-21T21:14:03.870Z,8.47
2019-04-21T21:16:29.547Z,8.93
2019-04-21T21:19:08.533Z,8.83
2019-04-21T21:21:23.020Z,9.03
2019-04-21T21:23:51.312Z,11.40
2019-04-21T21:26:21.901Z,7.83
2019-04-21T21:28:39.084Z,7.60
2019-04-21T21:31:12.966Z,8.30
2019-04-21T21:33:54.221Z,8.13
2019-04-21T21:36:10.705Z,10.50
2019-04-21T21:38:36.526Z,8.37
2019-04-21T21:40:57.377Z,8.80
2019-04-21T21:43:21.159Z,9.40
2019-04-21T21:45:50.029Z,7.37
2019-04-21T21:48:32.071Z,6.90
2019-04-21T21:50:56.665Z,6.80
2019-04-21T21:53:21.507Z,6.83
2019-04-21T21:55:44.683Z,7.40
2019-04-21T21:58:12.353Z,6.87
2019-04-21T22:03:33.479Z,7.27
2019-04-21T22:06:03.508Z,6.93
2019-04-21T22:08:22.611Z,6.57
2019-04-21T22:10:49.404Z,6.97
2019-04-21T22:13:20.325Z,6.07
2019-04-21T22:15:48.250Z,7.30
2019-04-21T22:18:31.021Z,7.30
2019-04-21T22:20:55.010Z,6.50
2019-04-21T22:23:13.032Z,7.27
2019-04-21T22:25:38.058Z,6.73
2019-04-21T22:28:04.056Z,7.17
2019-04-21T22:30:37.070Z,7.17
2019-04-21T22:33:04.483Z,6.50
2019-04-21T22:35:33.519Z,9.23
2019-04-21T22:38:10.187Z,8.50
2019-04-21T22:40:33.981Z,7.20
2019-04-21T22:42:59.387Z,6.63
2019-04-21T22:45:18.054Z,6.60
2019-04-21T22:47:45.153Z,7.60
2019-04-21T22:50:53.322Z,6.50
2019-04-21T22:53:19.794Z,8.20
2019-04-21T22:55:49.591Z,7.37
2019-04-21T22:58:15.927Z,7.50
2019-04-21T23:01:04.221Z,7.00
2019-04-21T23:03:55.323Z,7.30
2019-04-21T23:06:22.047Z,8.10
2019-04-21T23:08:48.066Z,7.73
2019-04-21T23:11:15.885Z,8.30
2019-04-21T23:13:45.059Z,7.03
2019-04-21T23:16:33.739Z,7.33
2019-04-21T23:19:15.918Z,8.57
2019-04-21T23:21:45.791Z,7.53
2019-04-21T23:24:08.763Z,9.43
2019-04-21T23:26:37.482Z,7.50
2019-04-21T23:29:39.206Z,7.17
2019-04-21T23:32:13.230Z,7.80
2019-04-21T23:34:30.578Z,7.10
2019-04-21T23:37:00.233Z,8.17
2019-04-21T23:39:23.396Z,7.23
2019-04-21T23:41:51.606Z,9.53
2019-04-21T23:44:17.226Z,9.00
2019-04-21T23:46:44.464Z,9.20
2019-04-21T23:49:42.980Z,7.80
2019-04-21T23:52:19.769Z,9.10
2019-04-21T23:54:47.228Z,9.53
2019-04-21T23:57:39.705Z,7.60
